Washta, Iowa
Current Conditions -  °F | °C
As of 1:15 PM on Thursday 30 Oct 2014 (Local Time) from KCKP Reporting Station
Clear Clear  
Wind Chill: 14°   Ceiling: Unl
Heat Index: 14°   Visibility: 10mi
Dew Point:   Wind: 10mph
Humidity: 52%   Direction: 350°N
Pressure: 30.05"   Gusts: NA
Location:  42.58°N, 95.72°W
Report Text: KCKP 301815Z AUTO 35009KT 10SM CLR 14/04 A3005 RMK AO2 T01370039
Loading
Personal Weather Stations






























Interactive Weather Map
Tropical Storm Tracking
New forecast layout! Learn more

10-Day Weather Forecast

Advertisements
Track Severe Weather on mobile